createdAt,value
2017-03-15T00:00:27.366Z,0
2017-03-15T00:01:49.176Z,0
2017-03-15T00:03:11.669Z,0
2017-03-15T00:04:33.623Z,0
2017-03-15T00:05:55.140Z,0
2017-03-15T00:07:17.342Z,0
2017-03-15T00:08:39.416Z,0
2017-03-15T00:10:01.228Z,0
2017-03-15T00:11:22.732Z,0
2017-03-15T00:12:44.863Z,0
2017-03-15T00:14:07.297Z,0
2017-03-15T00:15:29.115Z,0
2017-03-15T00:16:50.942Z,0
2017-03-15T00:18:13.417Z,0
2017-03-15T00:19:35.824Z,0
2017-03-15T00:20:57.975Z,0
2017-03-15T00:22:19.798Z,0
2017-03-15T00:23:42.007Z,0
2017-03-15T00:25:04.811Z,0
2017-03-15T00:26:26.626Z,0
2017-03-15T00:27:48.766Z,0
2017-03-15T00:29:11.213Z,0
2017-03-15T00:30:33.717Z,0
2017-03-15T00:31:55.540Z,0
2017-03-15T00:33:17.348Z,0
2017-03-15T00:34:39.800Z,0
2017-03-15T00:36:01.871Z,0
2017-03-15T00:37:23.420Z,0
2017-03-15T00:38:45.597Z,0
2017-03-15T00:40:07.712Z,0
2017-03-15T00:41:30.527Z,0
2017-03-15T00:42:52.757Z,0
2017-03-15T00:44:14.879Z,0
2017-03-15T00:45:36.687Z,0
2017-03-15T00:46:59.126Z,0
2017-03-15T00:48:20.315Z,0
2017-03-15T00:49:42.120Z,0
2017-03-15T00:51:04.350Z,0
2017-03-15T00:52:26.411Z,0
2017-03-15T00:53:48.236Z,0
2017-03-15T00:55:10.457Z,0
2017-03-15T00:56:32.890Z,0
2017-03-15T00:57:54.651Z,0
2017-03-15T00:59:16.155Z,0
2017-03-15T01:00:37.666Z,0
2017-03-15T01:01:59.204Z,0
2017-03-15T01:03:21.307Z,0
2017-03-15T01:04:43.878Z,0
2017-03-15T01:06:06.126Z,0
2017-03-15T01:07:28.019Z,0
2017-03-15T01:08:50.158Z,0
2017-03-15T01:10:12.286Z,0
2017-03-15T01:11:34.417Z,0
2017-03-15T01:12:56.872Z,0
2017-03-15T01:14:18.779Z,0
2017-03-15T01:15:40.293Z,0
2017-03-15T01:17:02.497Z,0
2017-03-15T01:18:24.006Z,0
2017-03-15T01:19:46.377Z,0
2017-03-15T01:21:07.946Z,0
2017-03-15T01:22:29.838Z,0
2017-03-15T01:23:52.094Z,0
2017-03-15T01:25:13.996Z,0
2017-03-15T01:26:36.757Z,0
2017-03-15T01:27:58.280Z,0
2017-03-15T01:29:20.401Z,0
2017-03-15T01:30:43.255Z,0
2017-03-15T01:32:05.422Z,0
2017-03-15T01:33:26.934Z,0
2017-03-15T01:34:49.067Z,0
2017-03-15T01:36:11.129Z,0
2017-03-15T01:37:33.268Z,0
2017-03-15T01:38:55.731Z,0
2017-03-15T01:40:17.878Z,0
2017-03-15T01:41:39.328Z,0
2017-03-15T01:43:01.475Z,0
2017-03-15T01:44:23.307Z,0
2017-03-15T01:45:44.817Z,0
2017-03-15T01:47:07.758Z,0
2017-03-15T01:48:30.225Z,0
2017-03-15T01:49:52.043Z,0
2017-03-15T01:51:13.414Z,0
2017-03-15T01:52:36.100Z,0
2017-03-15T01:53:58.003Z,0
2017-03-15T01:55:19.835Z,0
2017-03-15T01:56:41.965Z,0
2017-03-15T01:58:04.061Z,0
2017-03-15T01:59:25.557Z,0
2017-03-15T02:00:47.380Z,0
2017-03-15T02:02:09.543Z,0
2017-03-15T02:03:31.387Z,0
2017-03-15T02:04:53.600Z,0
2017-03-15T02:06:15.095Z,0
2017-03-15T02:07:36.912Z,0
2017-03-15T02:08:59.097Z,0
2017-03-15T02:10:21.233Z,0
2017-03-15T02:11:43.728Z,0
2017-03-15T02:13:06.296Z,0
2017-03-15T02:14:28.203Z,0
2017-03-15T02:15:50.039Z,0
2017-03-15T02:17:11.859Z,0
2017-03-15T02:18:33.999Z,0
2017-03-15T02:19:56.427Z,0
2017-03-15T02:21:18.564Z,0
2017-03-15T02:22:40.078Z,0
2017-03-15T02:24:01.604Z,0
2017-03-15T02:25:23.977Z,0
2017-03-15T02:26:46.525Z,0
2017-03-15T02:28:08.683Z,0
2017-03-15T02:29:30.490Z,0
2017-03-15T02:30:52.726Z,0
2017-03-15T02:32:14.839Z,0
2017-03-15T02:33:36.992Z,0
2017-03-15T02:34:58.845Z,0
2017-03-15T02:36:21.336Z,0
2017-03-15T02:37:43.555Z,0
2017-03-15T02:39:05.727Z,0
2017-03-15T02:40:27.568Z,0
2017-03-15T02:41:50.001Z,0
2017-03-15T02:43:12.285Z,0
2017-03-15T02:44:34.724Z,0
2017-03-15T02:45:56.547Z,0
2017-03-15T02:47:18.813Z,0
2017-03-15T02:48:40.690Z,0
2017-03-15T02:50:02.502Z,0
2017-03-15T02:51:24.310Z,0
2017-03-15T02:52:46.696Z,0
2017-03-15T02:54:08.180Z,0
2017-03-15T02:55:30.319Z,0
2017-03-15T02:56:52.447Z,0
2017-03-15T02:58:14.827Z,0
2017-03-15T02:59:36.962Z,0
2017-03-15T03:00:59.416Z,0
2017-03-15T03:02:21.550Z,0
2017-03-15T03:03:43.805Z,0
2017-03-15T03:05:06.281Z,0
2017-03-15T03:06:28.224Z,0
2017-03-15T03:07:49.087Z,0
2017-03-15T03:09:11.134Z,0
2017-03-15T03:10:33.304Z,0
2017-03-15T03:11:55.454Z,0
2017-03-15T03:13:16.938Z,0
2017-03-15T03:14:39.128Z,0
2017-03-15T03:16:00.632Z,0
2017-03-15T03:17:22.450Z,0
2017-03-15T03:18:43.974Z,0
2017-03-15T03:20:06.827Z,0
2017-03-15T03:21:28.446Z,0
2017-03-15T03:22:50.314Z,0
2017-03-15T03:24:12.452Z,0
2017-03-15T03:25:35.205Z,0
2017-03-15T03:26:56.717Z,0
2017-03-15T03:28:18.653Z,0
2017-03-15T03:29:40.143Z,0
2017-03-15T03:31:01.922Z,0
2017-03-15T03:32:23.203Z,0
2017-03-15T03:33:45.036Z,0
2017-03-15T03:35:07.194Z,0
2017-03-15T03:36:29.405Z,0
2017-03-15T03:37:51.545Z,0
2017-03-15T03:39:14.050Z,0
2017-03-15T03:40:36.304Z,0
2017-03-15T03:41:58.768Z,0
2017-03-15T03:43:20.583Z,0
2017-03-15T03:44:41.766Z,0
2017-03-15T03:46:03.594Z,0
2017-03-15T03:47:26.338Z,0
2017-03-15T03:48:48.168Z,0
2017-03-15T03:50:10.297Z,0
2017-03-15T03:51:32.410Z,0
2017-03-15T03:52:54.615Z,0
2017-03-15T03:54:16.739Z,0
2017-03-15T03:55:38.548Z,0
2017-03-15T03:57:00.704Z,0
2017-03-15T03:58:23.124Z,0
2017-03-15T03:59:44.957Z,0
2017-03-15T04:01:06.535Z,0
2017-03-15T04:02:28.665Z,0
2017-03-15T04:03:51.032Z,0
2017-03-15T04:05:13.495Z,0
2017-03-15T04:06:35.652Z,0
2017-03-15T04:07:56.850Z,0
2017-03-15T04:09:19.035Z,0
2017-03-15T04:10:40.874Z,0
2017-03-15T04:12:02.723Z,0
2017-03-15T04:13:24.875Z,0
2017-03-15T04:14:47.004Z,0
2017-03-15T04:16:09.482Z,0
2017-03-15T04:17:31.061Z,0
2017-03-15T04:18:52.241Z,0
2017-03-15T04:20:14.613Z,0
2017-03-15T04:21:36.109Z,0
2017-03-15T04:22:57.627Z,0
2017-03-15T04:24:19.149Z,0
2017-03-15T04:25:41.853Z,0
2017-03-15T04:27:04.135Z,0
2017-03-15T04:28:26.304Z,0
2017-03-15T04:29:48.453Z,0
2017-03-15T04:31:10.576Z,0
2017-03-15T04:32:33.156Z,0
2017-03-15T04:33:54.985Z,0
2017-03-15T04:35:16.511Z,0
2017-03-15T04:36:38.644Z,0
2017-03-15T04:38:00.149Z,0
2017-03-15T04:39:21.993Z,0
2017-03-15T04:40:43.832Z,0
2017-03-15T04:42:06.215Z,0
2017-03-15T04:43:28.779Z,0
2017-03-15T04:44:50.945Z,0
2017-03-15T04:46:12.445Z,0
2017-03-15T04:47:34.924Z,0
2017-03-15T04:48:56.417Z,0
2017-03-15T04:50:18.228Z,0
2017-03-15T04:51:40.383Z,0
2017-03-15T04:53:02.451Z,0
2017-03-15T04:54:24.583Z,0
2017-03-15T04:55:46.477Z,0
2017-03-15T04:57:08.295Z,0
2017-03-15T04:58:30.936Z,0
2017-03-15T04:59:52.453Z,0
2017-03-15T05:01:14.066Z,4
2017-03-15T05:02:36.309Z,4
2017-03-15T05:03:58.760Z,0
2017-03-15T05:05:21.251Z,4
2017-03-15T05:06:42.795Z,4
2017-03-15T05:08:05.268Z,4
2017-03-15T05:09:27.102Z,8
2017-03-15T05:10:49.114Z,8
2017-03-15T05:12:10.943Z,8
2017-03-15T05:13:32.741Z,8
2017-03-15T05:14:55.202Z,12
2017-03-15T05:16:17.706Z,12
2017-03-15T05:17:40.169Z,20
2017-03-15T05:19:02.062Z,24
2017-03-15T05:20:23.817Z,28
2017-03-15T05:21:45.630Z,36
2017-03-15T05:23:07.844Z,44
2017-03-15T05:24:29.736Z,52
2017-03-15T05:25:51.477Z,72
2017-03-15T05:27:12.635Z,80
2017-03-15T05:28:35.063Z,96
2017-03-15T05:29:56.869Z,116
2017-03-15T05:31:18.616Z,136
2017-03-15T05:32:40.424Z,156
2017-03-15T05:34:02.569Z,176
2017-03-15T05:35:24.742Z,204
2017-03-15T05:36:47.170Z,232
2017-03-15T05:38:09.314Z,264
2017-03-15T05:39:30.832Z,296
2017-03-15T05:40:52.658Z,328
2017-03-15T05:42:15.402Z,376
2017-03-15T05:43:37.548Z,428
2017-03-15T05:44:59.363Z,480
2017-03-15T05:46:20.877Z,544
2017-03-15T05:47:43.383Z,612
2017-03-15T05:49:05.876Z,688
2017-03-15T05:50:28.056Z,780
2017-03-15T05:51:50.229Z,880
2017-03-15T05:53:12.975Z,988
2017-03-15T05:54:34.836Z,1100
2017-03-15T05:55:56.647Z,1208
2017-03-15T05:57:18.776Z,1320
2017-03-15T05:58:41.244Z,1424
2017-03-15T06:00:02.500Z,1528
2017-03-15T06:01:24.740Z,1640
2017-03-15T06:02:47.196Z,1756
2017-03-15T06:04:09.640Z,1892
2017-03-15T06:05:32.094Z,2044
2017-03-15T06:06:54.260Z,2228
2017-03-15T06:08:16.406Z,2420
2017-03-15T06:09:38.832Z,2632
2017-03-15T06:11:00.795Z,2848
2017-03-15T06:12:22.940Z,3084
2017-03-15T06:13:44.772Z,3352
2017-03-15T06:15:06.583Z,4548
2017-03-15T06:16:29.020Z,5572
2017-03-15T06:17:51.197Z,5728
2017-03-15T06:19:13.027Z,5592
2017-03-15T06:20:35.140Z,5684
2017-03-15T06:21:56.336Z,5432
2017-03-15T06:23:18.167Z,4376
2017-03-15T06:24:40.630Z,4624
2017-03-15T06:26:02.719Z,4852
2017-03-15T06:27:24.886Z,5528
2017-03-15T06:28:47.570Z,6044
2017-03-15T06:30:09.465Z,6348
2017-03-15T06:31:31.201Z,7928
2017-03-15T06:32:53.036Z,9928
2017-03-15T06:34:15.502Z,9532
2017-03-15T06:35:37.654Z,9712
2017-03-15T06:37:00.322Z,8488
2017-03-15T06:38:22.469Z,7836
2017-03-15T06:39:44.616Z,7272
2017-03-15T06:41:06.740Z,6280
2017-03-15T06:42:29.085Z,8020
2017-03-15T06:43:51.245Z,7548
2017-03-15T06:45:13.648Z,7416
2017-03-15T06:46:35.790Z,8224
2017-03-15T06:47:58.196Z,7656
2017-03-15T06:49:19.685Z,7992
2017-03-15T06:50:41.845Z,8984
2017-03-15T06:52:04.045Z,8132
2017-03-15T06:53:26.438Z,8976
2017-03-15T06:54:48.600Z,8124
2017-03-15T06:56:09.811Z,9024
2017-03-15T06:57:31.407Z,9360
2017-03-15T06:58:53.516Z,8792
2017-03-15T07:00:15.065Z,9724
2017-03-15T07:01:37.219Z,9408
2017-03-15T07:02:59.075Z,9696
2017-03-15T07:04:21.533Z,8748
2017-03-15T07:05:43.421Z,8468
2017-03-15T07:07:05.903Z,7940
2017-03-15T07:08:28.139Z,7736
2017-03-15T07:09:50.610Z,7724
2017-03-15T07:11:12.765Z,7796
2017-03-15T07:12:34.976Z,7672
2017-03-15T07:13:56.796Z,8620
2017-03-15T07:15:18.863Z,9364
2017-03-15T07:16:41.005Z,9652
2017-03-15T07:18:02.508Z,10004
2017-03-15T07:19:24.344Z,9188
2017-03-15T07:20:46.819Z,9604
2017-03-15T07:22:08.965Z,9224
2017-03-15T07:23:31.392Z,8776
2017-03-15T07:24:52.915Z,8480
2017-03-15T07:26:15.606Z,7716
2017-03-15T07:27:37.742Z,6876
2017-03-15T07:28:59.275Z,7148
2017-03-15T07:30:20.782Z,7608
2017-03-15T07:31:43.519Z,7564
2017-03-15T07:33:05.660Z,7500
2017-03-15T07:34:27.179Z,7048
2017-03-15T07:35:48.992Z,6940
2017-03-15T07:37:11.739Z,6596
2017-03-15T07:38:34.303Z,6844
2017-03-15T07:39:56.140Z,6484
2017-03-15T07:41:18.582Z,6104
2017-03-15T07:42:41.034Z,6092
2017-03-15T07:44:03.175Z,6140
2017-03-15T07:45:25.651Z,6156
2017-03-15T07:46:47.199Z,6104
2017-03-15T07:48:09.125Z,6196
2017-03-15T07:49:31.327Z,6048
2017-03-15T07:50:53.667Z,5972
2017-03-15T07:52:15.492Z,5780
2017-03-15T07:53:37.576Z,5844
2017-03-15T07:54:59.384Z,5824
2017-03-15T07:56:20.936Z,5932
2017-03-15T07:57:42.752Z,6084
2017-03-15T07:59:05.134Z,6160
2017-03-15T08:00:26.934Z,6336
2017-03-15T08:01:49.072Z,6516
2017-03-15T08:03:10.919Z,6628
2017-03-15T08:04:32.675Z,6692
2017-03-15T08:05:54.821Z,6744
2017-03-15T08:07:17.429Z,6672
2017-03-15T08:08:39.439Z,6680
2017-03-15T08:10:01.238Z,6732
2017-03-15T08:11:23.731Z,6720
2017-03-15T08:12:45.913Z,6732
2017-03-15T08:14:07.759Z,6752
2017-03-15T08:15:30.327Z,6724
2017-03-15T08:16:52.247Z,6676
2017-03-15T08:18:14.742Z,6672
2017-03-15T08:19:36.675Z,6784
2017-03-15T08:20:59.132Z,6908
2017-03-15T08:22:21.258Z,7028
2017-03-15T08:23:43.725Z,7112
2017-03-15T08:25:05.891Z,7092
2017-03-15T08:26:28.330Z,6988
2017-03-15T08:27:50.162Z,6888
2017-03-15T08:29:11.677Z,6852
2017-03-15T08:30:33.934Z,6728
2017-03-15T08:31:55.678Z,6568
2017-03-15T08:33:18.077Z,6364
2017-03-15T08:34:39.872Z,6284
2017-03-15T08:36:01.381Z,6224
2017-03-15T08:37:23.274Z,6052
2017-03-15T08:38:45.503Z,6120
2017-03-15T08:40:07.318Z,5992
2017-03-15T08:41:29.784Z,6052
2017-03-15T08:42:52.305Z,6128
2017-03-15T08:44:14.657Z,6200
2017-03-15T08:45:37.126Z,6228
2017-03-15T08:46:58.952Z,6216
2017-03-15T08:48:21.386Z,6228
2017-03-15T08:49:43.275Z,6232
2017-03-15T08:51:05.437Z,6228
2017-03-15T08:52:27.575Z,6192
2017-03-15T08:53:49.760Z,6200
2017-03-15T08:55:11.907Z,6152
2017-03-15T08:56:34.555Z,6168
2017-03-15T08:57:56.408Z,6208
2017-03-15T08:59:19.155Z,6188
2017-03-15T09:00:40.998Z,6216
2017-03-15T09:02:03.445Z,6260
2017-03-15T09:03:25.910Z,6224
2017-03-15T09:04:48.349Z,6144
2017-03-15T09:06:10.502Z,6128
2017-03-15T09:07:33.178Z,5812
2017-03-15T09:08:55.655Z,5996
2017-03-15T09:10:18.386Z,5988
2017-03-15T09:11:40.239Z,5936
2017-03-15T09:13:02.822Z,5988
2017-03-15T09:14:24.994Z,6004
2017-03-15T09:15:46.734Z,6108
2017-03-15T09:17:08.227Z,6148
2017-03-15T09:18:29.715Z,6116
2017-03-15T09:19:51.204Z,6088
2017-03-15T09:21:13.945Z,6068
2017-03-15T09:22:36.577Z,5960
2017-03-15T09:23:58.083Z,5952
2017-03-15T09:25:20.270Z,5928
2017-03-15T09:26:42.446Z,5984
2017-03-15T09:28:04.413Z,5964
2017-03-15T09:29:26.622Z,6052
2017-03-15T09:30:48.147Z,6020
2017-03-15T09:32:10.853Z,6044
2017-03-15T09:33:33.347Z,6064
2017-03-15T09:34:55.525Z,6040
2017-03-15T09:36:17.503Z,6012
2017-03-15T09:37:40.221Z,6004
2017-03-15T09:39:01.732Z,5944
2017-03-15T09:40:23.262Z,5988
2017-03-15T09:41:45.077Z,5924
2017-03-15T09:43:07.465Z,5960
2017-03-15T09:44:29.638Z,5964
2017-03-15T09:45:51.783Z,6056
2017-03-15T09:47:13.624Z,5992
2017-03-15T09:48:36.064Z,5952
2017-03-15T09:49:57.907Z,5960
2017-03-15T09:51:20.174Z,5716
2017-03-15T09:52:42.287Z,5972
2017-03-15T09:54:04.976Z,5916
2017-03-15T09:55:27.177Z,6220
2017-03-15T09:56:49.015Z,6304
2017-03-15T09:58:11.162Z,6340
2017-03-15T09:59:33.405Z,6520
2017-03-15T10:00:55.536Z,6516
2017-03-15T10:02:17.990Z,6636
2017-03-15T10:03:40.446Z,6572
2017-03-15T10:05:02.888Z,6476
2017-03-15T10:06:25.415Z,6388
2017-03-15T10:07:47.243Z,6412
2017-03-15T10:09:08.771Z,6540
2017-03-15T10:10:31.233Z,6572
2017-03-15T10:11:53.751Z,6612
2017-03-15T10:13:15.929Z,6564
2017-03-15T10:14:37.738Z,6524
2017-03-15T10:15:59.232Z,6304
2017-03-15T10:17:20.514Z,6624
2017-03-15T10:18:42.346Z,6604
2017-03-15T10:20:04.796Z,6656
2017-03-15T10:21:27.197Z,6784
2017-03-15T10:22:49.674Z,6816
2017-03-15T10:24:11.845Z,6836
2017-03-15T10:25:33.675Z,6856
2017-03-15T10:26:56.534Z,6844
2017-03-15T10:28:19.002Z,6848
2017-03-15T10:29:41.156Z,7072
2017-03-15T10:31:02.964Z,7108
2017-03-15T10:32:25.666Z,7300
2017-03-15T10:33:47.157Z,7272
2017-03-15T10:35:09.005Z,7152
2017-03-15T10:36:31.433Z,7272
2017-03-15T10:37:54.236Z,7236
2017-03-15T10:39:16.418Z,7400
2017-03-15T10:40:38.647Z,7432
2017-03-15T10:42:01.145Z,7608
2017-03-15T10:43:23.600Z,7752
2017-03-15T10:44:46.066Z,7504
2017-03-15T10:46:08.484Z,8108
2017-03-15T10:47:29.995Z,7916
2017-03-15T10:48:52.054Z,8320
2017-03-15T10:50:13.565Z,9056
2017-03-15T10:51:35.361Z,9408
2017-03-15T10:52:57.815Z,10296
2017-03-15T10:54:20.514Z,11400
2017-03-15T10:55:42.434Z,13152
2017-03-15T10:57:04.715Z,14120
2017-03-15T10:58:26.827Z,14012
2017-03-15T10:59:48.964Z,12968
2017-03-15T11:01:11.102Z,12992
2017-03-15T11:02:32.915Z,14192
2017-03-15T11:03:55.466Z,15712
2017-03-15T11:05:18.237Z,15244
2017-03-15T11:06:40.466Z,14432
2017-03-15T11:08:02.298Z,14184
2017-03-15T11:09:24.152Z,14948
2017-03-15T11:10:46.834Z,13492
2017-03-15T11:12:08.666Z,11176
2017-03-15T11:13:29.916Z,9036
2017-03-15T11:14:52.364Z,7580
2017-03-15T11:16:15.084Z,7216
2017-03-15T11:17:37.212Z,7420
2017-03-15T11:18:58.878Z,7812
2017-03-15T11:20:20.716Z,7912
2017-03-15T11:21:43.421Z,8276
2017-03-15T11:23:05.902Z,8568
2017-03-15T11:24:27.742Z,8848
2017-03-15T11:25:50.064Z,9260
2017-03-15T11:27:12.487Z,10412
2017-03-15T11:28:34.674Z,11568
2017-03-15T11:29:56.809Z,11068
2017-03-15T11:31:19.338Z,10224
2017-03-15T11:32:43.189Z,8864
2017-03-15T11:34:06.113Z,8696
2017-03-15T11:35:28.028Z,10124
2017-03-15T11:36:50.553Z,11148
2017-03-15T11:38:11.996Z,12840
2017-03-15T11:39:34.235Z,12492
2017-03-15T11:40:56.477Z,11148
2017-03-15T11:42:18.392Z,9848
2017-03-15T11:43:41.419Z,9964
2017-03-15T11:45:03.256Z,10008
2017-03-15T11:46:25.375Z,9996
2017-03-15T11:47:46.890Z,9660
2017-03-15T11:49:09.345Z,9884
2017-03-15T11:50:31.220Z,9872
2017-03-15T11:51:53.452Z,9684
2017-03-15T11:53:15.335Z,9324
2017-03-15T11:54:37.473Z,9536
2017-03-15T11:55:59.495Z,10564
2017-03-15T11:57:21.623Z,10948
2017-03-15T11:58:43.434Z,11056
2017-03-15T12:00:05.276Z,10904
2017-03-15T12:01:27.601Z,10664
2017-03-15T12:02:50.076Z,11128
2017-03-15T12:04:12.303Z,12500
2017-03-15T12:05:35.056Z,13456
2017-03-15T12:06:57.515Z,13336
2017-03-15T12:08:20.158Z,13268
2017-03-15T12:09:42.694Z,13240
2017-03-15T12:11:05.404Z,14256
2017-03-15T12:12:27.836Z,14288
2017-03-15T12:13:50.008Z,14668
2017-03-15T12:15:13.106Z,14152
2017-03-15T12:16:35.839Z,13656
2017-03-15T12:17:58.394Z,13724
2017-03-15T12:19:20.531Z,14020
2017-03-15T12:20:42.345Z,14716
2017-03-15T12:22:04.751Z,14120
2017-03-15T12:23:30.540Z,13200
2017-03-15T12:24:52.921Z,12820
2017-03-15T12:26:15.042Z,13040
2017-03-15T12:27:37.149Z,13436
2017-03-15T12:28:58.952Z,14444
2017-03-15T12:30:20.446Z,14916
2017-03-15T12:31:42.657Z,14544
2017-03-15T12:33:05.088Z,12900
2017-03-15T12:34:59.754Z,12520
2017-03-15T12:36:21.902Z,13288
2017-03-15T12:37:44.356Z,13664
2017-03-15T12:39:06.467Z,13992
2017-03-15T12:40:28.578Z,12904
2017-03-15T12:41:50.855Z,11860
2017-03-15T12:43:13.653Z,10796
2017-03-15T12:44:35.500Z,10572
2017-03-15T12:45:56.998Z,10580
2017-03-15T12:47:19.438Z,11552
2017-03-15T12:48:41.752Z,12548
2017-03-15T12:50:03.897Z,13192
2017-03-15T12:51:26.479Z,14396
2017-03-15T12:52:48.272Z,14884
2017-03-15T12:54:10.674Z,13548
2017-03-15T12:55:32.476Z,12652
2017-03-15T12:57:26.084Z,13720
2017-03-15T12:58:48.553Z,12820
2017-03-15T13:00:36.633Z,11064
2017-03-15T13:01:58.542Z,9816
2017-03-15T13:03:20.156Z,9748
2017-03-15T13:04:42.305Z,9944
2017-03-15T13:06:05.169Z,10176
2017-03-15T13:07:26.992Z,10540
2017-03-15T13:08:49.236Z,10320
2017-03-15T13:10:11.707Z,10664
2017-03-15T13:11:34.294Z,11136
2017-03-15T13:13:28.220Z,11828
2017-03-15T13:14:50.365Z,11292
2017-03-15T13:16:12.828Z,10236
2017-03-15T13:17:35.639Z,10212
2017-03-15T13:18:57.463Z,10588
2017-03-15T13:20:19.915Z,9660
2017-03-15T13:21:42.317Z,8116
2017-03-15T13:23:04.571Z,8476
2017-03-15T13:24:26.752Z,8908
2017-03-15T13:25:48.880Z,9304
2017-03-15T13:27:11.413Z,9192
2017-03-15T13:28:33.594Z,9976
2017-03-15T13:29:56.099Z,11908
2017-03-15T13:31:17.902Z,12904
2017-03-15T13:32:39.985Z,12668
2017-03-15T13:34:01.577Z,11932
2017-03-15T13:35:24.166Z,12572
2017-03-15T13:36:46.437Z,12232
2017-03-15T13:38:08.865Z,11528
2017-03-15T13:39:31.336Z,12900
2017-03-15T13:40:53.803Z,12124
2017-03-15T13:42:15.929Z,10632
2017-03-15T13:43:38.007Z,9428
2017-03-15T13:45:00.157Z,9584
2017-03-15T13:46:22.017Z,9692
2017-03-15T13:47:44.455Z,9572
2017-03-15T13:49:06.739Z,9188
2017-03-15T13:50:28.896Z,8372
2017-03-15T13:51:51.336Z,7548
2017-03-15T13:53:13.784Z,6888
2017-03-15T13:54:35.914Z,6636
2017-03-15T13:55:58.129Z,6700
2017-03-15T13:57:19.314Z,6600
2017-03-15T13:58:41.452Z,6564
2017-03-15T14:00:03.876Z,6504
2017-03-15T14:01:25.998Z,6320
2017-03-15T14:02:48.187Z,6116
2017-03-15T14:04:10.440Z,6112
2017-03-15T14:05:33.171Z,6092
2017-03-15T14:06:55.039Z,6104
2017-03-15T14:08:16.878Z,6092
2017-03-15T14:09:39.361Z,6272
2017-03-15T14:11:01.422Z,6388
2017-03-15T14:12:23.334Z,6432
2017-03-15T14:13:45.809Z,6356
2017-03-15T14:15:07.984Z,6148
2017-03-15T14:16:30.694Z,6156
2017-03-15T14:17:53.209Z,6280
2017-03-15T14:19:15.355Z,6436
2017-03-15T14:20:36.929Z,6568
2017-03-15T14:21:59.351Z,6784
2017-03-15T14:23:21.545Z,6864
2017-03-15T14:24:43.752Z,7000
2017-03-15T14:26:05.893Z,6972
2017-03-15T14:27:28.624Z,6904
2017-03-15T14:28:51.070Z,6872
2017-03-15T14:30:12.893Z,6856
2017-03-15T14:31:35.135Z,6760
2017-03-15T14:32:56.861Z,6764
2017-03-15T14:34:19.011Z,6788
2017-03-15T14:35:40.938Z,6540
2017-03-15T14:37:03.092Z,6572
2017-03-15T14:38:25.847Z,6512
2017-03-15T14:39:48.037Z,6432
2017-03-15T14:41:10.501Z,6232
2017-03-15T14:42:32.632Z,6260
2017-03-15T14:43:55.496Z,6192
2017-03-15T14:45:17.374Z,6116
2017-03-15T14:46:38.914Z,5908
2017-03-15T14:48:01.362Z,6032
2017-03-15T14:49:24.059Z,6028
2017-03-15T14:50:46.334Z,6048
2017-03-15T14:52:08.582Z,6196
2017-03-15T14:53:30.556Z,6148
2017-03-15T14:54:52.971Z,6164
2017-03-15T14:56:15.133Z,5980
2017-03-15T14:57:36.660Z,5928
2017-03-15T14:58:58.922Z,5820
2017-03-15T15:00:20.999Z,5496
2017-03-15T15:01:43.471Z,5428
2017-03-15T15:03:05.952Z,5380
2017-03-15T15:04:28.169Z,5304
2017-03-15T15:05:51.113Z,5184
2017-03-15T15:07:13.262Z,5196
2017-03-15T15:08:35.875Z,5136
2017-03-15T15:09:58.325Z,4924
2017-03-15T15:11:20.732Z,4792
2017-03-15T15:12:42.714Z,4988
2017-03-15T15:14:04.878Z,5056
2017-03-15T15:15:27.047Z,4724
2017-03-15T15:16:49.502Z,4728
2017-03-15T15:18:43.944Z,4800
2017-03-15T15:20:06.466Z,4804
2017-03-15T15:21:28.684Z,4756
2017-03-15T15:22:51.212Z,4732
2017-03-15T15:24:13.396Z,4916
2017-03-15T15:25:35.844Z,4712
2017-03-15T15:26:57.920Z,4708
2017-03-15T15:28:20.387Z,4652
2017-03-15T15:29:42.545Z,4840
2017-03-15T15:31:04.764Z,4748
2017-03-15T15:32:27.311Z,4644
2017-03-15T15:33:49.162Z,4584
2017-03-15T15:35:10.365Z,4556
2017-03-15T15:36:32.526Z,4540
2017-03-15T15:37:54.692Z,4620
2017-03-15T15:39:16.555Z,4668
2017-03-15T15:40:38.703Z,4664
2017-03-15T15:42:00.865Z,4824
2017-03-15T15:43:23.616Z,4840
2017-03-15T15:44:45.795Z,4912
2017-03-15T15:46:08.254Z,4868
2017-03-15T15:47:30.400Z,4792
2017-03-15T15:48:54.686Z,4916
2017-03-15T15:50:16.811Z,5084
2017-03-15T15:51:38.690Z,5132
2017-03-15T15:53:00.838Z,5016
2017-03-15T15:54:22.830Z,5264
2017-03-15T15:55:45.289Z,5088
2017-03-15T15:57:07.506Z,5008
2017-03-15T15:58:29.689Z,5020
2017-03-15T15:59:52.242Z,5072
2017-03-15T16:01:14.676Z,4740
2017-03-15T16:02:37.001Z,4432
2017-03-15T16:03:59.478Z,4680
2017-03-15T16:05:21.713Z,4684
2017-03-15T16:06:43.605Z,4608
2017-03-15T16:08:06.056Z,4416
2017-03-15T16:09:27.857Z,4404
2017-03-15T16:10:50.634Z,4228
2017-03-15T16:12:13.241Z,4236
2017-03-15T16:13:35.553Z,4400
2017-03-15T16:14:58.013Z,4340
2017-03-15T16:16:20.454Z,4464
2017-03-15T16:17:42.576Z,4504
2017-03-15T16:19:05.069Z,4184
2017-03-15T16:20:27.503Z,4196
2017-03-15T16:21:50.823Z,4148
2017-03-15T16:23:13.011Z,4052
2017-03-15T16:24:35.217Z,3924
2017-03-15T16:25:57.714Z,3740
2017-03-15T16:27:20.522Z,3568
2017-03-15T16:28:42.966Z,3396
2017-03-15T16:30:05.420Z,3364
2017-03-15T16:31:27.549Z,3360
2017-03-15T16:32:49.689Z,3240
2017-03-15T16:34:11.221Z,3168
2017-03-15T16:35:33.688Z,3176
2017-03-15T16:36:55.874Z,3084
2017-03-15T16:38:18.343Z,3024
2017-03-15T16:39:39.915Z,2924
2017-03-15T16:41:01.726Z,2792
2017-03-15T16:42:23.872Z,2684
2017-03-15T16:43:46.620Z,2584
2017-03-15T16:45:08.562Z,2428
2017-03-15T16:46:30.714Z,2296
2017-03-15T16:47:52.856Z,2136
2017-03-15T16:49:15.362Z,2012
2017-03-15T16:50:37.514Z,1924
2017-03-15T16:51:59.351Z,1844
2017-03-15T16:53:21.789Z,1784
2017-03-15T16:54:44.172Z,1728
2017-03-15T16:56:06.855Z,1672
2017-03-15T16:58:01.263Z,1600
2017-03-15T16:59:23.482Z,1568
2017-03-15T17:00:45.630Z,1524
2017-03-15T17:02:07.456Z,1472
2017-03-15T17:03:29.967Z,1412
2017-03-15T17:04:51.850Z,1344
2017-03-15T17:06:14.093Z,1272
2017-03-15T17:07:35.590Z,1184
2017-03-15T17:08:58.049Z,1112
2017-03-15T17:10:20.593Z,1044
2017-03-15T17:11:42.413Z,972
2017-03-15T17:13:04.712Z,900
2017-03-15T17:14:27.223Z,820
2017-03-15T17:15:49.632Z,732
2017-03-15T17:17:11.790Z,656
2017-03-15T17:18:34.065Z,584
2017-03-15T17:19:56.571Z,512
2017-03-15T17:21:19.375Z,456
2017-03-15T17:22:41.197Z,408
2017-03-15T17:24:03.368Z,356
2017-03-15T17:25:25.812Z,304
2017-03-15T17:26:47.614Z,268
2017-03-15T17:28:10.181Z,228
2017-03-15T17:29:32.630Z,196
2017-03-15T17:30:54.788Z,168
2017-03-15T17:32:17.527Z,144
2017-03-15T17:33:40.001Z,120
2017-03-15T17:35:02.493Z,100
2017-03-15T17:36:24.332Z,84
2017-03-15T17:37:46.619Z,68
2017-03-15T17:39:08.782Z,60
2017-03-15T17:40:31.284Z,48
2017-03-15T17:41:53.754Z,40
2017-03-15T17:43:15.939Z,32
2017-03-15T17:44:38.158Z,24
2017-03-15T17:46:00.681Z,20
2017-03-15T17:47:22.943Z,16
2017-03-15T17:48:45.548Z,12
2017-03-15T17:50:07.702Z,8
2017-03-15T17:51:29.894Z,8
2017-03-15T17:52:51.737Z,4
2017-03-15T17:54:14.513Z,4
2017-03-15T17:55:37.078Z,4
2017-03-15T17:56:59.513Z,4
2017-03-15T17:58:21.990Z,0
2017-03-15T17:59:44.429Z,4
2017-03-15T18:01:06.271Z,0
2017-03-15T18:02:28.514Z,0
2017-03-15T18:03:50.955Z,0
2017-03-15T18:05:13.931Z,0
2017-03-15T18:06:35.616Z,0
2017-03-15T18:07:58.168Z,0
2017-03-15T18:09:20.617Z,0
2017-03-15T18:10:43.119Z,0
2017-03-15T18:12:05.402Z,0
2017-03-15T18:13:27.871Z,0
2017-03-15T18:14:49.718Z,0
2017-03-15T18:16:12.472Z,0
2017-03-15T18:17:34.746Z,0
2017-03-15T18:18:56.923Z,0
2017-03-15T18:20:19.196Z,0
2017-03-15T18:21:41.719Z,0
2017-03-15T18:23:03.885Z,0
2017-03-15T18:24:26.403Z,0
2017-03-15T18:25:48.895Z,0
2017-03-15T18:27:11.677Z,0
2017-03-15T18:28:34.159Z,0
2017-03-15T18:29:56.842Z,0
2017-03-15T18:31:19.342Z,0
2017-03-15T18:32:41.862Z,0
2017-03-15T18:34:04.347Z,0
2017-03-15T18:35:26.517Z,0
2017-03-15T18:36:48.804Z,0
2017-03-15T18:38:11.599Z,0
2017-03-15T18:39:34.119Z,0
2017-03-15T18:40:56.626Z,0
2017-03-15T18:42:18.775Z,0
2017-03-15T18:43:41.484Z,0
2017-03-15T18:45:03.630Z,0
2017-03-15T18:46:26.105Z,0
2017-03-15T18:47:48.632Z,0
2017-03-15T18:49:11.084Z,0
2017-03-15T18:50:32.976Z,0
2017-03-15T18:51:55.255Z,0
2017-03-15T18:53:17.483Z,0